Time;durP1;ratioP1;P1;durP2;ratioP2;P2;SDS_P1;SDS_P2;PMS_P1;PMS_P2;Temp;Humidity;BMP_temperature;BMP_pressure;BME280_temperature;BME280_humidity;BME280_pressure;Samples;Min_cycle;Max_cycle;Signal;HPM_P1;HPM_P2
2021/10/22 00:00:08;;;;;;;2.08;0.98;;;;;;;10.04;72.65;95283.13;5064841;28;20075;-80
2021/10/22 00:02:53;;;;;;;3.75;1.23;;;;;;;10.01;71.85;95297.63;5052196;28;20057;-79
2021/10/22 00:05:19;;;;;;;5.03;1.08;;;;;;;9.99;72.07;95302.38;5044513;28;20092;-80
2021/10/22 00:07:45;;;;;;;6.32;1.30;;;;;;;10.05;71.40;95298.63;5035377;28;20041;-80
2021/10/22 00:10:10;;;;;;;4.25;1.27;;;;;;;10.11;71.67;95296.00;5038844;28;20123;-79
2021/10/22 00:12:37;;;;;;;2.60;1.20;;;;;;;10.03;72.24;95307.88;5047919;28;20064;-79
2021/10/22 00:15:03;;;;;;;2.40;1.33;;;;;;;10.08;71.40;95307.84;5061727;28;20135;-79
2021/10/22 00:17:29;;;;;;;4.00;1.15;;;;;;;10.11;71.03;95309.91;5025644;28;20037;-79
2021/10/22 00:19:55;;;;;;;1.48;0.90;;;;;;;10.10;71.24;95310.19;5049340;28;20047;-79
2021/10/22 00:22:20;;;;;;;4.25;1.08;;;;;;;10.16;71.04;95317.78;5037872;28;20049;-79
2021/10/22 00:24:46;;;;;;;5.93;1.33;;;;;;;10.12;70.88;95319.38;5037606;28;20758;-79
2021/10/22 00:27:11;;;;;;;3.78;1.50;;;;;;;10.18;70.34;95317.53;5048259;28;20124;-79
2021/10/22 00:29:37;;;;;;;6.43;1.30;;;;;;;10.15;70.92;95318.06;5048128;28;20045;-78
2021/10/22 00:32:03;;;;;;;2.92;1.10;;;;;;;10.16;71.73;95336.19;5049340;28;20098;-79
2021/10/22 00:34:30;;;;;;;4.55;1.33;;;;;;;10.08;72.26;95339.38;5050106;28;20422;-79
2021/10/22 00:36:55;;;;;;;4.43;1.33;;;;;;;10.08;72.40;95336.75;5065710;28;20095;-79
2021/10/22 00:39:21;;;;;;;5.82;1.70;;;;;;;9.95;73.99;95337.34;5064422;28;20041;-79
2021/10/22 00:41:49;;;;;;;7.00;1.23;;;;;;;9.84;74.97;95339.22;5036988;28;20041;-80
2021/10/22 00:44:14;;;;;;;3.40;1.40;;;;;;;9.79;75.01;95342.66;5048535;28;20041;-80
2021/10/22 00:46:40;;;;;;;6.20;1.52;;;;;;;9.80;75.08;95344.22;5019366;28;20068;-81
2021/10/22 00:49:08;;;;;;;3.83;1.13;;;;;;;9.97;73.78;95353.63;5048995;28;20562;-79
2021/10/22 00:51:34;;;;;;;4.53;1.20;;;;;;;9.88;74.25;95346.31;5051798;28;20049;-80
2021/10/22 00:53:59;;;;;;;4.38;1.10;;;;;;;9.93;74.30;95352.59;5047349;28;20072;-80
2021/10/22 00:56:25;;;;;;;5.03;1.30;;;;;;;9.85;74.95;95357.34;5069303;28;20053;-79
2021/10/22 00:58:51;;;;;;;3.90;1.00;;;;;;;9.84;75.17;95361.03;5044434;28;20040;-80
2021/10/22 01:01:18;;;;;;;3.35;1.00;;;;;;;9.82;77.09;95362.38;5039494;28;20622;-79
2021/10/22 01:03:43;;;;;;;2.70;1.33;;;;;;;9.66;77.71;95359.00;5041795;28;20051;-79
2021/10/22 01:06:09;;;;;;;3.17;0.88;;;;;;;9.46;79.56;95368.47;5046318;28;20037;-79
2021/10/22 01:08:35;;;;;;;3.38;1.30;;;;;;;9.35;79.60;95369.53;5042106;28;20395;-79
2021/10/22 01:11:01;;;;;;;2.60;1.08;;;;;;;9.38;80.38;95368.22;5043384;28;20053;-79
2021/10/22 01:13:28;;;;;;;3.58;1.00;;;;;;;9.34;80.68;95370.59;5033889;28;20053;-78
2021/10/22 01:15:54;;;;;;;2.58;1.10;;;;;;;9.31;81.78;95365.88;5037740;28;20041;-79
2021/10/22 01:18:20;;;;;;;3.72;1.10;;;;;;;9.15;82.52;95371.16;5054332;28;20037;-80
2021/10/22 01:20:46;;;;;;;4.18;1.00;;;;;;;9.20;83.65;95362.47;5058502;28;20442;-80
2021/10/22 01:23:12;;;;;;;5.68;1.25;;;;;;;9.05;83.74;95365.91;5050788;28;20045;-79
2021/10/22 01:25:37;;;;;;;6.22;1.25;;;;;;;9.05;85.91;95371.16;5043171;28;20556;-80
2021/10/22 01:28:04;;;;;;;2.90;1.13;;;;;;;8.82;86.56;95362.72;5035229;28;20106;-80
2021/10/22 01:30:31;;;;;;;1.58;1.02;;;;;;;8.79;86.59;95363.25;5050746;28;20044;-80
2021/10/22 01:33:09;;;;;;;8.02;1.50;;;;;;;8.87;86.82;95369.03;5050385;28;20049;-79
2021/10/22 01:35:34;;;;;;;3.03;1.08;;;;;;;8.80;87.24;95364.81;5037005;28;20119;-79
2021/10/22 01:38:02;;;;;;;2.85;1.10;;;;;;;8.79;87.79;95363.25;5036028;28;20045;-80
2021/10/22 01:40:28;;;;;;;7.25;1.45;;;;;;;8.83;88.41;95369.56;5049345;28;20049;-79
2021/10/22 01:42:54;;;;;;;7.13;1.40;;;;;;;8.78;88.77;95360.91;5043192;28;20437;-79
2021/10/22 01:45:20;;;;;;;4.28;1.13;;;;;;;8.73;89.41;95364.28;5046421;28;20080;-79
2021/10/22 01:47:45;;;;;;;5.88;1.17;;;;;;;8.60;90.59;95365.56;5050223;28;20484;-80
2021/10/22 01:50:11;;;;;;;2.35;1.10;;;;;;;8.67;89.61;95360.09;5047819;28;20529;-79
2021/10/22 01:52:37;;;;;;;5.88;1.17;;;;;;;8.60;90.10;95370.03;5049328;28;20045;-79
2021/10/22 01:55:04;;;;;;;5.20;1.50;;;;;;;8.57;90.56;95362.69;5041309;28;20116;-79
2021/10/22 01:57:29;;;;;;;3.38;1.20;;;;;;;8.57;91.05;95365.31;5047825;28;20045;-79
2021/10/22 01:59:55;;;;;;;6.13;1.65;;;;;;;8.55;91.70;95367.41;5049973;28;20134;-80
2021/10/22 02:02:21;;;;;;;6.93;1.35;;;;;;;8.53;91.59;95369.50;5049032;28;20037;-79
2021/10/22 02:04:46;;;;;;;4.53;1.23;;;;;;;8.47;91.63;95361.63;5042901;28;20052;-80
2021/10/22 02:07:12;;;;;;;2.53;1.05;;;;;;;8.42;91.90;95369.47;5049658;28;20041;-80
2021/10/22 02:09:38;;;;;;;5.93;1.50;;;;;;;8.49;92.71;95370.03;5049907;28;20414;-80
2021/10/22 02:12:04;;;;;;;3.70;1.30;;;;;;;8.42;92.88;95364.22;5035002;28;20495;-79
2021/10/22 02:14:30;;;;;;;4.68;1.40;;;;;;;8.44;93.60;95372.63;5044758;28;20045;-79
2021/10/22 02:16:56;;;;;;;5.28;1.30;;;;;;;8.26;94.08;95375.69;5036838;28;20048;-81
2021/10/22 02:19:21;;;;;;;6.57;1.40;;;;;;;8.35;94.41;95370.72;5011921;28;20037;-80
2021/10/22 02:21:47;;;;;;;5.97;1.60;;;;;;;8.32;94.39;95379.91;5049055;28;20075;-81
2021/10/22 02:24:13;;;;;;;7.25;1.52;;;;;;;8.32;95.21;95387.78;5047551;28;20037;-78
2021/10/22 02:26:38;;;;;;;4.63;1.67;;;;;;;8.18;96.37;95368.34;5049191;28;20122;-80
2021/10/22 02:29:04;;;;;;;6.78;1.40;;;;;;;8.14;96.16;95376.69;5049655;28;20047;-79
2021/10/22 02:31:30;;;;;;;8.85;1.60;;;;;;;8.21;96.13;95378.31;5049274;28;20045;-80
2021/10/22 02:33:56;;;;;;;5.53;1.65;;;;;;;8.29;95.96;95386.47;5042141;28;20068;-80
2021/10/22 02:36:22;;;;;;;5.68;1.50;;;;;;;8.27;96.42;95387.75;5034518;28;20067;-81
2021/10/22 02:38:48;;;;;;;4.75;1.65;;;;;;;8.23;97.08;95391.94;5049150;28;20040;-80
2021/10/22 02:41:14;;;;;;;7.20;1.65;;;;;;;8.20;98.00;95392.44;5037652;28;20052;-80
2021/10/22 02:43:40;;;;;;;6.00;1.60;;;;;;;8.30;98.65;95392.47;5047961;28;20041;-79
2021/10/22 02:46:06;;;;;;;4.28;1.67;;;;;;;8.24;98.27;95398.75;5038573;28;20057;-80
2021/10/22 02:48:31;;;;;;;5.15;1.50;;;;;;;8.21;99.41;95399.28;5048801;28;20641;-81
2021/10/22 02:50:57;;;;;;;5.38;1.55;;;;;;;8.20;99.17;95397.69;5038953;28;20605;-81
2021/10/22 02:53:23;;;;;;;6.40;1.60;;;;;;;8.21;99.97;95399.28;5047430;28;20041;-81
2021/10/22 02:55:48;;;;;;;3.72;1.38;;;;;;;8.10;100.00;95401.88;5028961;28;20045;-81
2021/10/22 02:58:14;;;;;;;5.75;1.40;;;;;;;8.06;100.00;95398.16;5046021;28;20052;-80
2021/10/22 03:00:39;;;;;;;4.60;1.50;;;;;;;8.08;100.00;95401.31;5028692;28;20870;-81
2021/10/22 03:03:05;;;;;;;5.63;1.70;;;;;;;7.95;100.00;95404.41;5045543;28;20045;-81
2021/10/22 03:05:32;;;;;;;7.80;1.50;;;;;;;7.89;100.00;95408.84;5030897;28;20045;-80
2021/10/22 03:07:58;;;;;;;6.53;1.50;;;;;;;8.06;100.00;95402.59;5048828;28;20052;-81
2021/10/22 03:10:24;;;;;;;2.72;1.25;;;;;;;8.04;100.00;95400.25;5039124;28;20038;-81
2021/10/22 03:12:49;;;;;;;3.90;1.27;;;;;;;7.99;100.00;95405.47;5031470;28;20485;-81
2021/10/22 03:15:16;;;;;;;3.97;1.33;;;;;;;7.85;100.00;95406.97;5043213;28;20037;-81
2021/10/22 03:17:42;;;;;;;3.53;1.40;;;;;;;7.78;100.00;95413.22;5029192;28;20053;-83
2021/10/22 03:20:09;;;;;;;5.23;1.80;;;;;;;7.86;100.00;95425.06;5028604;28;20057;-81
2021/10/22 03:22:35;;;;;;;6.25;1.40;;;;;;;7.82;100.00;95415.34;5011094;28;20044;-80
2021/10/22 03:25:01;;;;;;;2.63;1.10;;;;;;;7.83;100.00;95414.28;5041736;28;20091;-81
2021/10/22 03:27:27;;;;;;;3.42;1.50;;;;;;;7.80;100.00;95429.47;5048524;28;20045;-80
2021/10/22 03:29:53;;;;;;;2.90;1.60;;;;;;;7.69;100.00;95425.22;5048456;28;20430;-81
2021/10/22 03:32:19;;;;;;;3.63;1.23;;;;;;;7.62;100.00;95424.66;5039357;28;20076;-81
2021/10/22 03:34:45;;;;;;;6.63;1.45;;;;;;;7.55;100.00;95429.31;5035090;28;20521;-81
2021/10/22 03:37:11;;;;;;;4.82;1.50;;;;;;;7.64;100.00;95430.41;5024004;28;20041;-81
2021/10/22 03:39:36;;;;;;;4.85;1.48;;;;;;;7.71;100.00;95438.84;5046391;28;20051;-81
2021/10/22 03:42:02;;;;;;;3.10;1.50;;;;;;;7.56;100.00;95436.16;5047240;28;20485;-80
2021/10/22 03:44:28;;;;;;;2.85;1.65;;;;;;;7.52;100.00;95440.31;5047208;28;20037;-81
2021/10/22 03:46:55;;;;;;;3.70;1.70;;;;;;;7.63;100.00;95445.34;5039875;28;20167;-80
2021/10/22 03:49:21;;;;;;;6.28;2.05;;;;;;;7.53;100.00;95436.63;5048033;28;20044;-80
2021/10/22 03:51:46;;;;;;;5.28;2.08;;;;;;;7.51;100.00;95444.72;5047939;28;20079;-81
2021/10/22 03:54:12;;;;;;;6.78;2.00;;;;;;;7.51;100.00;95443.94;5040507;28;20065;-81
2021/10/22 03:56:38;;;;;;;2.60;1.80;;;;;;;7.41;100.00;95435.00;5045459;28;20094;-80
2021/10/22 03:59:03;;;;;;;3.00;1.90;;;;;;;7.42;100.00;95435.78;5048761;28;20041;-81
2021/10/22 04:01:29;;;;;;;4.40;1.90;;;;;;;7.43;100.00;95432.91;5042629;28;20037;-81
2021/10/22 04:03:55;;;;;;;4.07;2.30;;;;;;;7.67;100.00;95435.19;5043444;28;20040;-80
2021/10/22 04:06:20;;;;;;;3.70;2.00;;;;;;;7.70;100.00;95437.28;5045247;28;20041;-81
2021/10/22 04:08:46;;;;;;;3.63;2.10;;;;;;;7.54;100.00;95440.81;5030857;28;20172;-81
2021/10/22 04:11:12;;;;;;;4.53;1.90;;;;;;;7.46;100.00;95437.63;5017319;28;20052;-80
2021/10/22 04:13:37;;;;;;;5.40;2.20;;;;;;;7.60;100.00;95443.25;5046198;28;20045;-81
2021/10/22 04:16:03;;;;;;;4.03;1.92;;;;;;;7.45;100.00;95441.28;5032472;28;20052;-80
2021/10/22 04:18:29;;;;;;;5.32;2.30;;;;;;;7.42;100.00;95451.47;5052087;28;20094;-80
2021/10/22 04:20:55;;;;;;;4.00;2.30;;;;;;;7.49;100.00;95456.53;5050285;28;20458;-81
2021/10/22 04:23:21;;;;;;;5.43;2.40;;;;;;;7.49;100.00;95456.53;5042680;28;20044;-81
2021/10/22 04:25:46;;;;;;;5.30;2.70;;;;;;;7.40;100.00;95449.13;5032632;28;20048;-80
2021/10/22 04:28:12;;;;;;;5.35;2.85;;;;;;;7.36;100.00;95453.28;5035211;28;20045;-80
2021/10/22 04:30:39;;;;;;;5.05;2.75;;;;;;;7.17;100.00;95454.66;5051583;28;20048;-81
2021/10/22 04:33:05;;;;;;;4.53;2.70;;;;;;;6.96;100.00;95444.03;5050838;28;20392;-81
2021/10/22 04:35:31;;;;;;;6.97;2.90;;;;;;;7.13;100.00;95453.63;5040032;28;20094;-80
2021/10/22 04:40:33;;;;;;;5.00;3.10;;;;;;;6.87;100.00;95455.97;5051355;28;20056;-81
2021/10/22 04:43:00;;;;;;;7.07;3.50;;;;;;;6.76;100.00;95453.25;5049733;28;20071;-80
2021/10/22 04:45:26;;;;;;;8.93;3.80;;;;;;;6.84;100.00;95459.06;5039872;28;20552;-81
2021/10/22 04:47:52;;;;;;;9.40;3.67;;;;;;;6.80;100.00;95476.31;5047965;28;20037;-81
2021/10/22 04:50:17;;;;;;;7.03;3.25;;;;;;;6.64;100.00;95443.94;5041044;28;20673;-81
2021/10/22 04:52:44;;;;;;;6.80;3.42;;;;;;;6.41;100.00;95454.44;5039697;28;20047;-80
2021/10/22 04:55:10;;;;;;;8.13;3.78;;;;;;;6.47;100.00;95447.44;5047980;28;20045;-83
2021/10/22 04:57:36;;;;;;;7.78;4.00;;;;;;;6.53;100.00;95440.47;5013978;28;20581;-80
2021/10/22 05:00:06;;;;;;;9.25;4.22;;;;;;;6.38;100.00;95449.72;5055265;28;20037;-79
2021/10/22 05:02:31;;;;;;;6.32;3.42;;;;;;;6.51;100.00;95466.06;5069431;28;20041;-80
2021/10/22 05:04:57;;;;;;;10.52;3.30;;;;;;;6.45;100.00;95464.41;5044091;28;20037;-79
2021/10/22 05:07:23;;;;;;;10.48;3.10;;;;;;;6.19;100.00;95451.03;5046335;28;20048;-81
2021/10/22 05:09:48;;;;;;;14.38;3.70;;;;;;;6.05;100.00;95459.22;5051166;28;20037;-80
2021/10/22 05:12:14;;;;;;;8.25;3.33;;;;;;;6.23;100.00;95473.03;5050167;28;20049;-80
2021/10/22 05:14:40;;;;;;;7.95;3.40;;;;;;;6.24;100.00;95467.56;5018600;28;20091;-81
2021/10/22 05:17:05;;;;;;;7.78;3.33;;;;;;;5.97;100.00;95464.84;5035175;28;20049;-80
2021/10/22 05:19:31;;;;;;;8.52;3.40;;;;;;;6.03;100.00;95487.44;5020835;28;20040;-80
2021/10/22 05:21:57;;;;;;;5.22;3.03;;;;;;;6.08;100.00;95476.25;5041142;28;20037;-80
2021/10/22 05:24:23;;;;;;;5.95;3.15;;;;;;;5.96;100.00;95468.50;5041217;28;20045;-80
2021/10/22 05:26:49;;;;;;;7.30;3.63;;;;;;;6.00;100.00;95474.81;5034864;28;20072;-81
2021/10/22 05:29:15;;;;;;;6.38;3.58;;;;;;;6.00;100.00;95469.59;5051903;28;20037;-80
2021/10/22 05:31:41;;;;;;;6.97;3.30;;;;;;;6.04;100.00;95475.94;5036034;28;20063;-80
2021/10/22 05:34:07;;;;;;;6.75;3.72;;;;;;;6.04;100.00;95489.00;5045551;28;20041;-79
2021/10/22 05:36:32;;;;;;;7.63;3.70;;;;;;;6.06;100.00;95494.78;5060240;28;20041;-80
2021/10/22 05:38:58;;;;;;;9.02;3.80;;;;;;;6.06;100.00;95489.56;5043359;28;20458;-79
2021/10/22 05:41:23;;;;;;;8.98;4.18;;;;;;;6.13;100.00;95493.81;5035242;28;20037;-79
2021/10/22 05:43:52;;;;;;;10.32;4.43;;;;;;;6.00;100.00;95495.72;5063917;28;20037;-83
2021/10/22 05:46:18;;;;;;;8.85;4.45;;;;;;;6.05;100.00;95493.19;5058358;28;20075;-84
2021/10/22 05:48:45;;;;;;;9.23;4.35;;;;;;;6.03;100.00;95505.72;5052960;28;20068;-83
2021/10/22 05:51:15;;;;;;;9.98;4.50;;;;;;;6.05;100.00;95508.88;5052740;28;20045;-83
2021/10/22 05:53:41;;;;;;;10.45;4.35;;;;;;;6.03;100.00;95505.72;5049203;28;20037;-83
2021/10/22 05:56:09;;;;;;;11.95;3.92;;;;;;;5.97;100.00;95511.88;5043804;28;20040;-82
2021/10/22 05:58:35;;;;;;;11.27;4.22;;;;;;;5.95;100.00;95508.69;5045797;28;20114;-81
2021/10/22 06:01:02;;;;;;;8.63;4.32;;;;;;;5.92;100.00;95509.19;5038033;28;20045;-83
2021/10/22 06:03:28;;;;;;;9.85;4.47;;;;;;;5.95;100.00;95513.13;5054764;28;20037;-81
2021/10/22 06:05:54;;;;;;;14.35;4.80;;;;;;;5.93;100.00;95505.53;5059432;28;20040;-80
2021/10/22 06:08:21;;;;;;;10.48;4.38;;;;;;;6.21;100.00;95516.91;5054346;28;20414;-80
2021/10/22 06:10:47;;;;;;;11.85;4.00;;;;;;;5.94;100.00;95528.00;5035561;28;20045;-81
2021/10/22 06:13:16;;;;;;;9.18;3.92;;;;;;;5.85;100.00;95525.00;5038965;28;20047;-79
2021/10/22 06:15:42;;;;;;;11.38;4.65;;;;;;;5.93;100.00;95526.41;5051435;28;20124;-79
2021/10/22 06:18:08;;;;;;;11.75;4.18;;;;;;;5.88;100.00;95521.91;5049137;28;20062;-79
2021/10/22 06:20:51;;;;;;;12.02;4.88;;;;;;;5.96;100.00;95531.19;5038109;28;20626;-78
2021/10/22 06:26:01;;;;;;;16.17;4.82;;;;;;;5.97;100.00;95531.97;5049021;28;20059;-79
2021/10/22 06:28:27;;;;;;;12.95;4.68;;;;;;;5.94;100.00;95538.44;5070878;28;20482;-79
2021/10/22 06:30:52;;;;;;;9.90;4.78;;;;;;;6.14;100.00;95540.59;5029953;28;20690;-78
2021/10/22 06:33:18;;;;;;;8.23;4.40;;;;;;;6.22;100.00;95549.84;5044127;28;20471;-80
2021/10/22 06:35:45;;;;;;;9.35;4.47;;;;;;;6.04;100.00;95554.31;5037715;28;20082;-80
2021/10/22 06:38:11;;;;;;;9.13;4.85;;;;;;;6.16;100.00;95545.59;5042085;28;20600;-80
2021/10/22 06:40:37;;;;;;;12.70;4.57;;;;;;;6.28;100.00;95554.13;5049891;28;20045;-79
2021/10/22 06:43:03;;;;;;;13.02;4.32;;;;;;;6.30;100.00;95556.50;5051331;28;20041;-79
2021/10/22 06:45:28;;;;;;;13.55;5.13;;;;;;;6.24;100.00;95560.88;5057258;28;20040;-80
2021/10/22 06:47:54;;;;;;;14.82;5.13;;;;;;;6.22;100.00;95560.28;5051067;28;20041;-79
2021/10/22 06:50:20;;;;;;;11.65;5.03;;;;;;;6.27;100.00;95563.00;5056761;28;20032;-79
2021/10/22 06:52:46;;;;;;;11.23;4.70;;;;;;;6.22;100.00;95565.53;5021134;28;20128;-81
2021/10/22 06:55:12;;;;;;;11.00;4.45;;;;;;;6.35;100.00;95567.81;5043577;28;20040;-80
2021/10/22 06:57:41;;;;;;;9.95;4.25;;;;;;;6.44;100.00;95562.16;5066062;28;20091;-80
2021/10/22 07:00:10;;;;;;;11.43;4.43;;;;;;;6.33;100.00;95558.63;5050330;28;20045;-79
2021/10/22 07:02:49;;;;;;;7.15;4.00;;;;;;;6.19;100.00;95560.78;5049167;28;20052;-80
2021/10/22 07:05:34;;;;;;;8.90;4.63;;;;;;;6.27;100.00;95563.00;5030929;28;20045;-81
2021/10/22 07:08:02;;;;;;;11.95;4.60;;;;;;;6.22;100.00;95568.13;5038304;28;20124;-81
2021/10/22 07:10:29;;;;;;;11.80;4.60;;;;;;;6.45;100.00;95574.19;5028756;28;20068;-79
2021/10/22 07:12:55;;;;;;;10.63;4.32;;;;;;;6.55;100.00;95569.09;5046673;28;20032;-78
2021/10/22 07:15:21;;;;;;;9.07;3.65;;;;;;;6.54;100.00;95567.53;5048659;28;20038;-77
2021/10/22 07:17:47;;;;;;;7.38;3.90;;;;;;;6.44;100.00;95572.63;5029595;28;20056;-80
2021/10/22 07:20:14;;;;;;;9.93;3.40;;;;;;;6.44;99.79;95577.84;5039033;28;20045;-79
2021/10/22 07:22:50;;;;;;;5.70;2.95;;;;;;;6.38;97.95;95585.63;5045546;28;20151;-79
2021/10/22 07:25:17;;;;;;;7.60;3.10;;;;;;;6.40;98.85;95588.78;5044757;28;20057;-79
2021/10/22 07:27:44;;;;;;;7.80;2.97;;;;;;;6.51;98.54;95594.19;5026095;28;20533;-79
2021/10/22 07:30:11;;;;;;;9.07;3.05;;;;;;;6.52;99.76;95596.53;5035227;28;20501;-80
2021/10/22 07:32:37;;;;;;;6.65;3.08;;;;;;;6.32;98.89;95602.28;5043752;28;20041;-80
2021/10/22 07:35:04;;;;;;;5.57;2.78;;;;;;;6.46;99.07;95609.78;5062302;28;20044;-79
2021/10/22 07:37:30;;;;;;;7.43;2.72;;;;;;;6.32;98.51;95612.72;5069144;28;20036;-78
2021/10/22 07:39:56;;;;;;;6.35;3.22;;;;;;;6.21;98.48;95621.44;5054910;28;20044;-79
2021/10/22 07:42:24;;;;;;;9.43;3.50;;;;;;;6.37;100.00;95636.31;5031849;28;20091;-78
2021/10/22 07:44:54;;;;;;;7.90;3.33;;;;;;;6.27;100.00;95646.63;5033484;28;20155;-78
2021/10/22 07:47:21;;;;;;;7.05;2.85;;;;;;;6.34;99.60;95642.03;5044014;28;20041;-80
2021/10/22 07:49:49;;;;;;;7.00;3.10;;;;;;;6.37;99.07;95641.53;5039749;28;20064;-79
2021/10/22 07:52:17;;;;;;;9.20;3.22;;;;;;;6.38;99.53;95653.59;5030031;28;20066;-80
2021/10/22 07:54:44;;;;;;;11.25;3.40;;;;;;;6.48;97.93;95652.16;5044931;28;20497;-80
2021/10/22 07:57:09;;;;;;;10.23;3.40;;;;;;;6.27;99.31;95657.06;5032448;28;20052;-82
2021/10/22 07:59:36;;;;;;;9.07;3.63;;;;;;;6.28;99.11;95663.09;5010899;28;20057;-80
2021/10/22 08:02:01;;;;;;;7.72;3.03;;;;;;;6.27;97.64;95662.31;5027657;28;20499;-78
2021/10/22 08:04:27;;;;;;;8.02;2.83;;;;;;;6.18;98.88;95663.75;5040706;28;20060;-79
2021/10/22 08:06:52;;;;;;;11.50;3.17;;;;;;;6.26;99.44;95671.16;5049013;28;20048;-81
2021/10/22 08:09:18;;;;;;;11.05;3.22;;;;;;;6.20;100.00;95661.66;5011340;28;20116;-81
2021/10/22 08:11:43;;;;;;;7.15;2.70;;;;;;;6.21;98.92;95673.72;5027870;28;20049;-82
2021/10/22 08:14:09;;;;;;;6.68;3.10;;;;;;;6.36;100.00;95671.31;5030147;28;20060;-81
2021/10/22 08:16:35;;;;;;;7.18;3.08;;;;;;;6.32;97.84;95683.31;5035340;28;20045;-79
2021/10/22 08:19:01;;;;;;;9.95;3.50;;;;;;;6.20;97.28;95688.59;5050107;28;20040;-78
2021/10/22 08:23:58;;;;;;;7.97;3.28;;;;;;;6.11;97.55;95690.03;5047603;28;20041;-78
2021/10/22 08:26:24;;;;;;;8.68;4.43;;;;;;;6.14;99.75;95697.38;5049272;28;20071;-79
2021/10/22 08:28:50;;;;;;;11.55;4.18;;;;;;;6.15;99.71;95693.75;5039136;28;20103;-79
2021/10/22 08:31:15;;;;;;;8.55;3.42;;;;;;;6.13;98.55;95697.63;5052924;28;20072;-79
2021/10/22 08:33:41;;;;;;;7.72;3.63;;;;;;;6.04;100.00;95694.59;5047878;28;20740;-79
2021/10/22 08:36:07;;;;;;;10.77;3.70;;;;;;;6.16;99.16;95704.97;5049983;28;20041;-81
2021/10/22 08:38:35;;;;;;;7.00;3.40;;;;;;;6.29;98.17;95704.66;5033444;28;20052;-80
2021/10/22 08:41:01;;;;;;;9.88;3.60;;;;;;;6.27;98.61;95709.34;5049082;28;20049;-78
2021/10/22 08:43:27;;;;;;;7.57;3.20;;;;;;;6.32;95.44;95706.84;5044143;28;20045;-79
2021/10/22 08:45:55;;;;;;;13.65;4.07;;;;;;;6.31;98.30;95710.47;5045392;28;20044;-79
2021/10/22 08:48:22;;;;;;;9.02;3.53;;;;;;;6.44;96.83;95717.19;5017119;28;20491;-79
2021/10/22 08:50:48;;;;;;;11.30;3.78;;;;;;;6.60;98.06;95728.69;5012779;28;20465;-81
2021/10/22 08:53:13;;;;;;;11.38;3.60;;;;;;;6.49;95.63;95721.72;5043508;28;20091;-80
2021/10/22 08:55:39;;;;;;;6.72;3.40;;;;;;;6.46;95.66;95728.22;5047856;28;20136;-79
2021/10/22 08:58:04;;;;;;;8.55;3.95;;;;;;;6.54;97.73;95724.41;5047874;28;20045;-79
2021/10/22 09:00:30;;;;;;;9.18;3.60;;;;;;;6.76;95.89;95717.41;5032829;28;20041;-80
2021/10/22 09:03:18;;;;;;;11.82;4.07;;;;;;;6.84;96.42;95723.28;5039314;28;20051;-78
2021/10/22 09:06:01;;;;;;;10.43;3.72;;;;;;;6.91;94.98;95723.91;5048135;28;20406;-79
2021/10/22 09:08:29;;;;;;;10.23;3.70;;;;;;;6.99;94.88;95714.88;5045783;28;20052;-79
2021/10/22 09:10:54;;;;;;;8.85;4.03;;;;;;;6.87;95.94;95728.06;5032822;28;20045;-78
2021/10/22 09:13:30;;;;;;;9.07;3.58;;;;;;;6.84;93.72;95723.28;5048177;28;20498;-79
2021/10/22 09:15:58;;;;;;;13.85;4.35;;;;;;;6.87;95.74;95728.06;5046947;28;20106;-79
2021/10/22 09:18:28;;;;;;;10.35;3.72;;;;;;;6.96;95.97;95731.03;5049424;28;20622;-78
2021/10/22 09:20:59;;;;;;;8.43;3.60;;;;;;;6.98;95.52;95745.44;5051580;28;20495;-78
2021/10/22 09:23:33;;;;;;;12.52;4.60;;;;;;;6.91;93.26;95739.59;5047908;28;20037;-78
2021/10/22 09:26:31;;;;;;;8.05;3.30;;;;;;;7.07;92.52;95738.78;5051672;28;20044;-78
2021/10/22 09:29:20;;;;;;;9.38;3.22;;;;;;;7.21;93.39;95738.44;5010440;28;20418;-83
2021/10/22 09:31:47;;;;;;;11.18;3.65;;;;;;;7.36;92.96;95741.25;5052110;28;20053;-79
2021/10/22 09:34:28;;;;;;;4.95;2.95;;;;;;;7.64;94.97;95736.88;5033839;28;20044;-80
2021/10/22 09:36:53;;;;;;;8.48;3.40;;;;;;;7.66;93.83;95750.53;5055308;28;20459;-79
2021/10/22 09:39:20;;;;;;;6.85;3.20;;;;;;;7.37;92.41;95748.09;5065024;28;20045;-79
2021/10/22 09:41:51;;;;;;;7.15;3.55;;;;;;;7.39;90.53;95746.00;5048103;28;20049;-79
2021/10/22 09:44:29;;;;;;;6.70;3.05;;;;;;;7.08;89.36;95753.47;5053240;28;20052;-79
2021/10/22 09:47:04;;;;;;;8.55;3.28;;;;;;;7.32;89.29;95758.47;5050298;28;20040;-79
2021/10/22 09:49:30;;;;;;;;;;;;;;;7.29;91.00;95756.34;5052121;28;20060;-80
2021/10/22 09:51:56;;;;;;;7.70;3.30;;;;;;;7.26;90.83;95764.69;5039019;28;19982;-80
2021/10/22 09:54:30;;;;;;;9.75;3.78;;;;;;;7.38;89.47;95765.34;5046884;28;20033;-79
2021/10/22 09:56:58;;;;;;;5.78;3.20;;;;;;;7.33;87.15;95759.28;5050524;28;20045;-79
2021/10/22 09:59:26;;;;;;;7.88;2.72;;;;;;;7.39;87.35;95761.72;5033483;28;20041;-79
2021/10/22 10:01:54;;;;;;;8.88;2.80;;;;;;;7.26;86.21;95764.69;5049759;28;20048;-79
2021/10/22 10:04:21;;;;;;;9.68;3.10;;;;;;;7.29;86.69;95761.59;5053253;28;20037;-79
2021/10/22 10:06:48;;;;;;;7.88;2.88;;;;;;;7.36;87.05;95771.91;5048834;28;20045;-78
2021/10/22 10:09:14;;;;;;;9.18;2.75;;;;;;;7.33;87.33;95778.41;5047450;28;20079;-80
2021/10/22 10:11:44;;;;;;;6.03;2.80;;;;;;;7.49;86.35;95786.47;5043932;28;20077;-81
2021/10/22 10:14:14;;;;;;;10.32;2.58;;;;;;;7.43;84.52;95778.53;5013230;28;20418;-80
2021/10/22 10:16:41;;;;;;;6.57;2.60;;;;;;;7.08;84.87;95787.50;5031652;28;20045;-79
2021/10/22 10:19:12;;;;;;;6.55;2.30;;;;;;;7.31;88.16;95775.22;5039537;28;20049;-79
2021/10/22 10:21:44;;;;;;;6.35;2.38;;;;;;;7.37;87.73;95779.50;5049804;28;20041;-80
2021/10/22 10:24:12;;;;;;;6.63;2.53;;;;;;;7.24;88.12;95774.59;5047769;28;20041;-79
2021/10/22 10:26:38;;;;;;;10.55;2.92;;;;;;;7.27;87.53;95776.75;5045959;28;20414;-80
2021/10/22 10:29:08;;;;;;;7.88;3.50;;;;;;;7.36;88.70;95767.44;5052132;28;20048;-79
2021/10/22 10:31:44;;;;;;;8.85;3.03;;;;;;;7.40;87.48;95773.78;5047782;28;20099;-79
2021/10/22 10:34:31;;;;;;;8.75;3.15;;;;;;;7.84;89.64;95767.75;5029625;28;20045;-80
2021/10/22 10:37:07;;;;;;;8.27;3.13;;;;;;;7.78;87.67;95768.72;5042373;28;20423;-80
2021/10/22 10:39:42;;;;;;;7.47;3.30;;;;;;;7.70;87.81;95777.81;5028167;28;20622;-80
2021/10/22 10:42:20;;;;;;;11.07;3.03;;;;;;;7.76;88.53;95781.28;5030055;28;20052;-81
2021/10/22 10:44:47;;;;;;;6.90;3.20;;;;;;;7.79;87.40;95773.72;5030849;28;20507;-80
2021/10/22 10:47:28;;;;;;;5.60;3.00;;;;;;;7.79;87.03;95783.41;5030290;28;20050;-80
2021/10/22 10:49:54;;;;;;;8.55;2.75;;;;;;;7.70;87.95;95783.06;5039908;28;20632;-79
2021/10/22 10:52:38;;;;;;;8.45;2.80;;;;;;;7.71;87.12;95792.47;5055140;28;20089;-81
2021/10/22 10:55:30;;;;;;;6.28;2.65;;;;;;;7.87;85.22;95784.81;5043739;28;20049;-82
2021/10/22 10:58:09;;;;;;;9.38;2.85;;;;;;;7.79;83.27;95786.81;5030492;28;20087;-81
2021/10/22 11:00:49;;;;;;;5.38;2.58;;;;;;;7.72;83.96;95791.44;5043172;28;20044;-80
2021/10/22 11:03:26;;;;;;;7.38;3.17;;;;;;;7.87;85.57;95782.19;5047554;28;20541;-79
2021/10/22 11:05:53;;;;;;;10.25;3.05;;;;;;;8.05;83.04;95774.00;5028980;28;20067;-79
2021/10/22 11:08:24;;;;;;;11.38;2.80;;;;;;;8.04;82.53;95776.88;5049540;28;20075;-80
2021/10/22 11:11:07;;;;;;;7.68;2.60;;;;;;;7.81;83.62;95778.72;5033401;28;20043;-79
2021/10/22 11:13:41;;;;;;;6.03;2.65;;;;;;;7.94;84.96;95777.53;5052728;28;20480;-79
2021/10/22 11:16:28;;;;;;;7.05;2.60;;;;;;;7.82;85.23;95774.28;5064505;28;20502;-78
2021/10/22 11:19:03;;;;;;;8.13;2.97;;;;;;;7.77;87.23;95778.44;5056956;28;20045;-81
2021/10/22 11:21:34;;;;;;;8.15;2.67;;;;;;;7.66;85.74;95776.72;5034152;28;20040;-80
2021/10/22 11:24:02;;;;;;;9.70;3.05;;;;;;;7.76;84.69;95771.59;5058808;28;20090;-79
2021/10/22 11:26:29;;;;;;;11.88;2.88;;;;;;;8.05;85.51;95768.75;5068232;28;20044;-80
2021/10/22 11:28:57;;;;;;;6.15;2.55;;;;;;;8.33;85.65;95774.78;5070252;28;20068;-81
2021/10/22 11:31:39;;;;;;;6.93;2.72;;;;;;;8.23;82.92;95774.69;5062034;28;20049;-80
2021/10/22 11:34:06;;;;;;;7.15;2.15;;;;;;;8.09;85.41;95764.63;5053914;28;20171;-86
2021/10/22 11:36:33;;;;;;;5.07;2.13;;;;;;;8.14;84.84;95767.28;5053922;28;20040;-82
2021/10/22 11:39:01;;;;;;;4.22;2.30;;;;;;;8.17;83.72;95759.97;5047124;28;20049;-81
2021/10/22 11:41:27;;;;;;;5.32;2.22;;;;;;;8.14;82.67;95762.03;5057750;28;20506;-80
2021/10/22 11:44:04;;;;;;;5.97;2.30;;;;;;;8.28;81.05;95766.91;5016254;28;20049;-80
2021/10/22 11:46:44;;;;;;;7.03;2.72;;;;;;;8.29;81.62;95750.13;5047005;28;20456;-79